sensor_id;sensor_type;location;lat;lon;timestamp;temperature;humidity
15455;DHT22;21057;51.024;7.540;2023-02-15T00:00:32;3.70;99.90
15455;DHT22;21057;51.024;7.540;2023-02-15T00:02:59;3.70;99.90
15455;DHT22;21057;51.024;7.540;2023-02-15T00:05:27;3.70;99.90
15455;DHT22;21057;51.024;7.540;2023-02-15T00:08:04;3.80;99.90
15455;DHT22;21057;51.024;7.540;2023-02-15T00:10:31;3.80;99.90
15455;DHT22;21057;51.024;7.540;2023-02-15T00:13:00;3.70;99.90
15455;DHT22;21057;51.024;7.540;2023-02-15T00:15:26;3.60;99.90
15455;DHT22;21057;51.024;7.540;2023-02-15T00:17:53;3.70;99.90
15455;DHT22;21057;51.024;7.540;2023-02-15T00:20:20;3.80;99.90
15455;DHT22;21057;51.024;7.540;2023-02-15T00:22:50;3.90;99.90
15455;DHT22;21057;51.024;7.540;2023-02-15T00:25:17;3.80;99.90
15455;DHT22;21057;51.024;7.540;2023-02-15T00:27:45;3.90;99.90
15455;DHT22;21057;51.024;7.540;2023-02-15T00:30:12;3.70;99.90
15455;DHT22;21057;51.024;7.540;2023-02-15T00:32:39;3.50;99.90
15455;DHT22;21057;51.024;7.540;2023-02-15T00:35:08;3.30;99.90
15455;DHT22;21057;51.024;7.540;2023-02-15T00:37:36;3.30;99.90
15455;DHT22;21057;51.024;7.540;2023-02-15T00:40:08;3.20;99.90
15455;DHT22;21057;51.024;7.540;2023-02-15T00:42:35;3.30;99.90
15455;DHT22;21057;51.024;7.540;2023-02-15T00:45:02;3.20;99.90
15455;DHT22;21057;51.024;7.540;2023-02-15T00:47:29;3.20;99.90
15455;DHT22;21057;51.024;7.540;2023-02-15T00:49:56;3.40;99.90
15455;DHT22;21057;51.024;7.540;2023-02-15T00:52:23;3.50;99.90
15455;DHT22;21057;51.024;7.540;2023-02-15T00:54:49;3.70;99.90
15455;DHT22;21057;51.024;7.540;2023-02-15T00:57:21;3.80;99.90
15455;DHT22;21057;51.024;7.540;2023-02-15T00:59:47;3.80;99.90
15455;DHT22;21057;51.024;7.540;2023-02-15T01:02:15;3.90;99.90
15455;DHT22;21057;51.024;7.540;2023-02-15T01:04:42;3.90;99.90
15455;DHT22;21057;51.024;7.540;2023-02-15T01:07:09;3.90;99.90
15455;DHT22;21057;51.024;7.540;2023-02-15T01:09:37;4.00;99.90
15455;DHT22;21057;51.024;7.540;2023-02-15T01:12:04;4.10;99.90
15455;DHT22;21057;51.024;7.540;2023-02-15T01:14:33;3.90;99.90
15455;DHT22;21057;51.024;7.540;2023-02-15T01:16:59;3.90;99.90
15455;DHT22;21057;51.024;7.540;2023-02-15T01:19:26;3.90;99.90
15455;DHT22;21057;51.024;7.540;2023-02-15T01:21:53;4.00;99.90
15455;DHT22;21057;51.024;7.540;2023-02-15T01:24:20;4.00;99.90
15455;DHT22;21057;51.024;7.540;2023-02-15T01:26:47;3.90;99.90
15455;DHT22;21057;51.024;7.540;2023-02-15T01:29:21;3.60;99.90
15455;DHT22;21057;51.024;7.540;2023-02-15T01:31:49;3.50;99.90
15455;DHT22;21057;51.024;7.540;2023-02-15T01:34:16;3.30;99.90
15455;DHT22;21057;51.024;7.540;2023-02-15T01:36:43;3.20;99.90
15455;DHT22;21057;51.024;7.540;2023-02-15T01:39:09;3.10;99.90
15455;DHT22;21057;51.024;7.540;2023-02-15T01:41:37;3.00;99.90
15455;DHT22;21057;51.024;7.540;2023-02-15T01:46:51;2.80;99.90
15455;DHT22;21057;51.024;7.540;2023-02-15T01:49:21;2.90;99.90
15455;DHT22;21057;51.024;7.540;2023-02-15T01:51:52;2.80;99.90
15455;DHT22;21057;51.024;7.540;2023-02-15T01:54:22;2.70;99.90
15455;DHT22;21057;51.024;7.540;2023-02-15T01:56:50;2.60;99.90
15455;DHT22;21057;51.024;7.540;2023-02-15T01:59:20;2.60;99.90
15455;DHT22;21057;51.024;7.540;2023-02-15T02:01:50;2.60;99.90
15455;DHT22;21057;51.024;7.540;2023-02-15T02:04:24;2.80;99.90
15455;DHT22;21057;51.024;7.540;2023-02-15T02:07:02;3.00;99.90
15455;DHT22;21057;51.024;7.540;2023-02-15T02:09:30;2.80;99.90
15455;DHT22;21057;51.024;7.540;2023-02-15T02:11:58;2.70;99.90
15455;DHT22;21057;51.024;7.540;2023-02-15T02:14:25;2.60;99.90
15455;DHT22;21057;51.024;7.540;2023-02-15T02:16:58;2.50;99.90
15455;DHT22;21057;51.024;7.540;2023-02-15T02:19:52;2.40;99.90
15455;DHT22;21057;51.024;7.540;2023-02-15T02:22:57;2.40;99.90
15455;DHT22;21057;51.024;7.540;2023-02-15T02:25:53;2.30;99.90
15455;DHT22;21057;51.024;7.540;2023-02-15T02:28:53;2.20;99.90
15455;DHT22;21057;51.024;7.540;2023-02-15T02:31:39;2.10;99.90
15455;DHT22;21057;51.024;7.540;2023-02-15T02:34:14;2.10;99.90
15455;DHT22;21057;51.024;7.540;2023-02-15T02:36:50;2.10;99.90
15455;DHT22;21057;51.024;7.540;2023-02-15T02:39:28;2.10;99.90
15455;DHT22;21057;51.024;7.540;2023-02-15T02:42:03;2.20;99.90
15455;DHT22;21057;51.024;7.540;2023-02-15T02:44:38;2.60;99.90
15455;DHT22;21057;51.024;7.540;2023-02-15T02:47:11;2.90;99.90
15455;DHT22;21057;51.024;7.540;2023-02-15T02:49:41;2.90;99.90
15455;DHT22;21057;51.024;7.540;2023-02-15T02:52:36;2.80;99.90
15455;DHT22;21057;51.024;7.540;2023-02-15T02:55:08;2.60;99.90
15455;DHT22;21057;51.024;7.540;2023-02-15T02:57:57;2.40;99.90
15455;DHT22;21057;51.024;7.540;2023-02-15T03:00:30;2.30;99.90
15455;DHT22;21057;51.024;7.540;2023-02-15T03:03:02;2.20;99.90
15455;DHT22;21057;51.024;7.540;2023-02-15T03:05:34;2.10;99.90
15455;DHT22;21057;51.024;7.540;2023-02-15T03:08:04;2.10;99.90
15455;DHT22;21057;51.024;7.540;2023-02-15T03:10:36;2.00;99.90
15455;DHT22;21057;51.024;7.540;2023-02-15T03:13:03;2.00;99.90
15455;DHT22;21057;51.024;7.540;2023-02-15T03:15:34;2.00;99.90
15455;DHT22;21057;51.024;7.540;2023-02-15T03:18:16;2.10;99.90
15455;DHT22;21057;51.024;7.540;2023-02-15T03:20:46;2.20;99.90
15455;DHT22;21057;51.024;7.540;2023-02-15T03:23:17;2.40;99.90
15455;DHT22;21057;51.024;7.540;2023-02-15T03:25:49;2.50;99.90
15455;DHT22;21057;51.024;7.540;2023-02-15T03:28:19;2.60;99.90
15455;DHT22;21057;51.024;7.540;2023-02-15T03:30:51;2.60;99.90
15455;DHT22;21057;51.024;7.540;2023-02-15T03:33:21;2.60;99.90
15455;DHT22;21057;51.024;7.540;2023-02-15T03:35:54;2.50;99.90
15455;DHT22;21057;51.024;7.540;2023-02-15T03:38:29;2.50;99.90
15455;DHT22;21057;51.024;7.540;2023-02-15T03:41:00;2.50;99.90
15455;DHT22;21057;51.024;7.540;2023-02-15T03:43:43;2.50;99.90
15455;DHT22;21057;51.024;7.540;2023-02-15T03:46:15;2.30;99.90
15455;DHT22;21057;51.024;7.540;2023-02-15T03:48:48;2.20;99.90
15455;DHT22;21057;51.024;7.540;2023-02-15T03:51:19;2.20;99.90
15455;DHT22;21057;51.024;7.540;2023-02-15T03:54:01;2.10;99.90
15455;DHT22;21057;51.024;7.540;2023-02-15T03:56:29;2.20;99.90
15455;DHT22;21057;51.024;7.540;2023-02-15T03:58:56;2.20;99.90
15455;DHT22;21057;51.024;7.540;2023-02-15T04:01:47;2.10;99.90
15455;DHT22;21057;51.024;7.540;2023-02-15T04:04:30;2.20;99.90
15455;DHT22;21057;51.024;7.540;2023-02-15T04:07:00;2.30;99.90
15455;DHT22;21057;51.024;7.540;2023-02-15T04:09:27;2.30;99.90
15455;DHT22;21057;51.024;7.540;2023-02-15T04:12:12;2.40;99.90
15455;DHT22;21057;51.024;7.540;2023-02-15T04:14:39;2.50;99.90
15455;DHT22;21057;51.024;7.540;2023-02-15T04:17:23;2.60;99.90
15455;DHT22;21057;51.024;7.540;2023-02-15T04:19:50;2.70;99.90
15455;DHT22;21057;51.024;7.540;2023-02-15T04:22:36;2.70;99.90
15455;DHT22;21057;51.024;7.540;2023-02-15T04:25:21;2.60;99.90
15455;DHT22;21057;51.024;7.540;2023-02-15T04:27:49;2.60;99.90
15455;DHT22;21057;51.024;7.540;2023-02-15T04:30:18;2.60;99.90
15455;DHT22;21057;51.024;7.540;2023-02-15T04:32:46;2.50;99.90
15455;DHT22;21057;51.024;7.540;2023-02-15T04:35:13;2.30;99.90
15455;DHT22;21057;51.024;7.540;2023-02-15T04:37:43;2.10;99.90
15455;DHT22;21057;51.024;7.540;2023-02-15T04:40:13;2.20;99.90
15455;DHT22;21057;51.024;7.540;2023-02-15T04:42:40;2.30;99.90
15455;DHT22;21057;51.024;7.540;2023-02-15T04:45:08;2.40;99.90
15455;DHT22;21057;51.024;7.540;2023-02-15T04:47:35;2.40;99.90
15455;DHT22;21057;51.024;7.540;2023-02-15T04:50:02;2.50;99.90
15455;DHT22;21057;51.024;7.540;2023-02-15T04:52:29;2.40;99.90
15455;DHT22;21057;51.024;7.540;2023-02-15T04:54:57;2.30;99.90
15455;DHT22;21057;51.024;7.540;2023-02-15T04:57:24;2.30;99.90
15455;DHT22;21057;51.024;7.540;2023-02-15T04:59:51;2.30;99.90
15455;DHT22;21057;51.024;7.540;2023-02-15T05:02:17;2.40;99.90
15455;DHT22;21057;51.024;7.540;2023-02-15T05:04:44;2.30;99.90
15455;DHT22;21057;51.024;7.540;2023-02-15T05:07:11;2.30;99.90
15455;DHT22;21057;51.024;7.540;2023-02-15T05:09:38;2.30;99.90
15455;DHT22;21057;51.024;7.540;2023-02-15T05:12:06;2.10;99.90
15455;DHT22;21057;51.024;7.540;2023-02-15T05:14:33;2.00;99.90
15455;DHT22;21057;51.024;7.540;2023-02-15T05:17:00;1.90;99.90
15455;DHT22;21057;51.024;7.540;2023-02-15T05:19:32;1.80;99.90
15455;DHT22;21057;51.024;7.540;2023-02-15T05:21:59;1.70;99.90
15455;DHT22;21057;51.024;7.540;2023-02-15T05:24:27;1.70;99.90
15455;DHT22;21057;51.024;7.540;2023-02-15T05:27:13;1.80;99.90
15455;DHT22;21057;51.024;7.540;2023-02-15T05:29:57;1.60;99.90
15455;DHT22;21057;51.024;7.540;2023-02-15T05:32:24;1.60;99.90
15455;DHT22;21057;51.024;7.540;2023-02-15T05:34:53;1.50;99.90
15455;DHT22;21057;51.024;7.540;2023-02-15T05:37:20;1.40;99.90
15455;DHT22;21057;51.024;7.540;2023-02-15T05:39:46;1.30;99.90
15455;DHT22;21057;51.024;7.540;2023-02-15T05:42:14;1.30;99.90
15455;DHT22;21057;51.024;7.540;2023-02-15T05:44:43;1.20;99.90
15455;DHT22;21057;51.024;7.540;2023-02-15T05:47:10;1.30;99.90
15455;DHT22;21057;51.024;7.540;2023-02-15T05:49:40;1.30;99.90
15455;DHT22;21057;51.024;7.540;2023-02-15T05:52:07;1.30;99.90
15455;DHT22;21057;51.024;7.540;2023-02-15T05:54:33;1.20;99.90
15455;DHT22;21057;51.024;7.540;2023-02-15T05:57:00;1.20;99.90
15455;DHT22;21057;51.024;7.540;2023-02-15T05:59:29;1.30;99.90
15455;DHT22;21057;51.024;7.540;2023-02-15T06:01:56;1.40;99.90
15455;DHT22;21057;51.024;7.540;2023-02-15T06:04:25;1.50;99.90
15455;DHT22;21057;51.024;7.540;2023-02-15T06:06:52;1.50;99.90
15455;DHT22;21057;51.024;7.540;2023-02-15T06:09:19;1.60;99.90
15455;DHT22;21057;51.024;7.540;2023-02-15T06:11:49;1.60;99.90
15455;DHT22;21057;51.024;7.540;2023-02-15T06:14:16;1.70;99.90
15455;DHT22;21057;51.024;7.540;2023-02-15T06:16:46;1.70;99.90
15455;DHT22;21057;51.024;7.540;2023-02-15T06:19:12;1.90;99.90
15455;DHT22;21057;51.024;7.540;2023-02-15T06:21:39;1.90;99.90
15455;DHT22;21057;51.024;7.540;2023-02-15T06:24:08;1.90;99.90
15455;DHT22;21057;51.024;7.540;2023-02-15T06:26:35;1.90;99.90
15455;DHT22;21057;51.024;7.540;2023-02-15T06:29:02;2.00;99.90
15455;DHT22;21057;51.024;7.540;2023-02-15T06:31:29;2.20;99.90
15455;DHT22;21057;51.024;7.540;2023-02-15T06:33:57;2.20;99.90
15455;DHT22;21057;51.024;7.540;2023-02-15T06:36:26;2.20;99.90
15455;DHT22;21057;51.024;7.540;2023-02-15T06:38:53;2.20;99.90
15455;DHT22;21057;51.024;7.540;2023-02-15T06:41:20;2.30;99.90
15455;DHT22;21057;51.024;7.540;2023-02-15T06:43:47;2.30;99.90
15455;DHT22;21057;51.024;7.540;2023-02-15T06:46:14;2.10;99.90
15455;DHT22;21057;51.024;7.540;2023-02-15T06:48:41;2.10;99.90
15455;DHT22;21057;51.024;7.540;2023-02-15T06:51:10;1.90;99.90
15455;DHT22;21057;51.024;7.540;2023-02-15T06:53:37;1.70;99.90
15455;DHT22;21057;51.024;7.540;2023-02-15T06:56:07;1.80;99.90
15455;DHT22;21057;51.024;7.540;2023-02-15T06:58:34;1.70;99.90
15455;DHT22;21057;51.024;7.540;2023-02-15T07:01:01;1.70;99.90
15455;DHT22;21057;51.024;7.540;2023-02-15T07:03:28;1.80;99.90
15455;DHT22;21057;51.024;7.540;2023-02-15T07:05:55;2.00;99.90
15455;DHT22;21057;51.024;7.540;2023-02-15T07:08:24;2.10;99.90
15455;DHT22;21057;51.024;7.540;2023-02-15T07:10:52;2.10;99.90
15455;DHT22;21057;51.024;7.540;2023-02-15T07:13:19;2.10;99.90
15455;DHT22;21057;51.024;7.540;2023-02-15T07:15:46;1.90;99.90
15455;DHT22;21057;51.024;7.540;2023-02-15T07:18:13;1.80;99.90
15455;DHT22;21057;51.024;7.540;2023-02-15T07:20:42;1.80;99.90
15455;DHT22;21057;51.024;7.540;2023-02-15T07:23:09;1.80;99.90
15455;DHT22;21057;51.024;7.540;2023-02-15T07:25:37;1.70;99.90
15455;DHT22;21057;51.024;7.540;2023-02-15T07:28:04;1.80;99.90
15455;DHT22;21057;51.024;7.540;2023-02-15T07:30:31;1.70;99.90
15455;DHT22;21057;51.024;7.540;2023-02-15T07:32:59;1.60;99.90
15455;DHT22;21057;51.024;7.540;2023-02-15T07:35:47;1.70;99.90
15455;DHT22;21057;51.024;7.540;2023-02-15T07:38:14;1.70;99.90
15455;DHT22;21057;51.024;7.540;2023-02-15T07:40:42;1.80;99.90
15455;DHT22;21057;51.024;7.540;2023-02-15T07:43:09;1.90;99.90
15455;DHT22;21057;51.024;7.540;2023-02-15T07:45:36;1.90;99.90
15455;DHT22;21057;51.024;7.540;2023-02-15T07:48:05;2.00;99.90
15455;DHT22;21057;51.024;7.540;2023-02-15T07:50:42;2.20;99.90
15455;DHT22;21057;51.024;7.540;2023-02-15T07:53:15;2.10;99.90
15455;DHT22;21057;51.024;7.540;2023-02-15T07:55:43;2.30;99.90
15455;DHT22;21057;51.024;7.540;2023-02-15T07:58:11;2.40;99.90
15455;DHT22;21057;51.024;7.540;2023-02-15T08:00:38;2.30;99.90
15455;DHT22;21057;51.024;7.540;2023-02-15T08:03:19;2.30;99.90
15455;DHT22;21057;51.024;7.540;2023-02-15T08:05:56;2.30;99.90
15455;DHT22;21057;51.024;7.540;2023-02-15T08:08:24;2.30;99.90
15455;DHT22;21057;51.024;7.540;2023-02-15T08:10:59;2.40;99.90
15455;DHT22;21057;51.024;7.540;2023-02-15T08:13:44;2.40;99.90
15455;DHT22;21057;51.024;7.540;2023-02-15T08:16:24;2.30;99.90
15455;DHT22;21057;51.024;7.540;2023-02-15T08:18:53;2.40;99.90
15455;DHT22;21057;51.024;7.540;2023-02-15T08:21:22;2.30;99.90
15455;DHT22;21057;51.024;7.540;2023-02-15T08:23:57;2.50;99.90
15455;DHT22;21057;51.024;7.540;2023-02-15T08:26:27;2.50;99.90
15455;DHT22;21057;51.024;7.540;2023-02-15T08:28:55;2.50;99.90
15455;DHT22;21057;51.024;7.540;2023-02-15T08:31:29;2.50;99.90
15455;DHT22;21057;51.024;7.540;2023-02-15T08:33:56;2.70;99.90
15455;DHT22;21057;51.024;7.540;2023-02-15T08:36:31;2.70;99.90
15455;DHT22;21057;51.024;7.540;2023-02-15T08:39:06;2.70;99.90
15455;DHT22;21057;51.024;7.540;2023-02-15T08:41:36;2.80;99.90
15455;DHT22;21057;51.024;7.540;2023-02-15T08:44:05;2.90;99.90
15455;DHT22;21057;51.024;7.540;2023-02-15T08:46:34;3.10;99.90
15455;DHT22;21057;51.024;7.540;2023-02-15T08:49:01;3.10;99.90
15455;DHT22;21057;51.024;7.540;2023-02-15T08:51:31;3.20;99.90
15455;DHT22;21057;51.024;7.540;2023-02-15T08:54:00;3.30;99.90
15455;DHT22;21057;51.024;7.540;2023-02-15T08:56:29;3.50;99.90
15455;DHT22;21057;51.024;7.540;2023-02-15T08:58:59;3.50;99.90
15455;DHT22;21057;51.024;7.540;2023-02-15T09:01:28;3.50;99.90
15455;DHT22;21057;51.024;7.540;2023-02-15T09:03:56;3.70;99.90
15455;DHT22;21057;51.024;7.540;2023-02-15T09:06:23;3.70;99.90
15455;DHT22;21057;51.024;7.540;2023-02-15T09:08:50;3.90;99.90
15455;DHT22;21057;51.024;7.540;2023-02-15T09:11:19;4.00;99.90
15455;DHT22;21057;51.024;7.540;2023-02-15T09:13:51;4.00;99.90
15455;DHT22;21057;51.024;7.540;2023-02-15T09:16:19;4.00;99.90
15455;DHT22;21057;51.024;7.540;2023-02-15T09:18:47;4.20;99.90
15455;DHT22;21057;51.024;7.540;2023-02-15T09:21:15;4.10;99.90
15455;DHT22;21057;51.024;7.540;2023-02-15T09:23:46;4.10;99.90
15455;DHT22;21057;51.024;7.540;2023-02-15T09:26:15;4.20;99.90
15455;DHT22;21057;51.024;7.540;2023-02-15T09:28:43;4.30;99.90
15455;DHT22;21057;51.024;7.540;2023-02-15T09:31:12;4.70;99.90
15455;DHT22;21057;51.024;7.540;2023-02-15T09:33:46;4.80;99.90
15455;DHT22;21057;51.024;7.540;2023-02-15T09:36:18;4.70;99.90
15455;DHT22;21057;51.024;7.540;2023-02-15T09:38:47;4.90;99.90
15455;DHT22;21057;51.024;7.540;2023-02-15T09:41:26;4.90;99.90
15455;DHT22;21057;51.024;7.540;2023-02-15T09:44:06;4.90;99.90
15455;DHT22;21057;51.024;7.540;2023-02-15T09:46:53;4.90;99.90
15455;DHT22;21057;51.024;7.540;2023-02-15T09:49:30;5.10;99.90
15455;DHT22;21057;51.024;7.540;2023-02-15T09:55:08;5.60;99.90
15455;DHT22;21057;51.024;7.540;2023-02-15T09:57:47;5.90;99.90
15455;DHT22;21057;51.024;7.540;2023-02-15T10:00:25;6.50;99.90
15455;DHT22;21057;51.024;7.540;2023-02-15T10:03:22;7.90;99.90
15455;DHT22;21057;51.024;7.540;2023-02-15T10:06:05;9.30;99.90
15455;DHT22;21057;51.024;7.540;2023-02-15T10:11:45;11.30;99.90
15455;DHT22;21057;51.024;7.540;2023-02-15T10:14:43;12.10;99.90
15455;DHT22;21057;51.024;7.540;2023-02-15T10:17:36;12.80;97.60
15455;DHT22;21057;51.024;7.540;2023-02-15T10:20:17;13.40;96.50
15455;DHT22;21057;51.024;7.540;2023-02-15T10:23:02;13.90;93.80
15455;DHT22;21057;51.024;7.540;2023-02-15T10:25:48;14.70;92.20
15455;DHT22;21057;51.024;7.540;2023-02-15T10:28:19;14.40;91.70
15455;DHT22;21057;51.024;7.540;2023-02-15T10:30:50;14.90;89.30
15455;DHT22;21057;51.024;7.540;2023-02-15T10:33:34;14.80;90.40
15455;DHT22;21057;51.024;7.540;2023-02-15T10:36:13;15.10;87.20
15455;DHT22;21057;51.024;7.540;2023-02-15T10:38:52;15.30;86.00
15455;DHT22;21057;51.024;7.540;2023-02-15T10:41:30;16.00;83.30
15455;DHT22;21057;51.024;7.540;2023-02-15T10:44:18;16.00;82.40
15455;DHT22;21057;51.024;7.540;2023-02-15T10:46:59;15.70;81.30
15455;DHT22;21057;51.024;7.540;2023-02-15T10:49:43;15.90;82.20
15455;DHT22;21057;51.024;7.540;2023-02-15T10:52:23;16.20;78.90
15455;DHT22;21057;51.024;7.540;2023-02-15T10:55:06;16.30;78.00
15455;DHT22;21057;51.024;7.540;2023-02-15T10:57:42;16.50;74.50
15455;DHT22;21057;51.024;7.540;2023-02-15T11:00:18;16.60;75.30
15455;DHT22;21057;51.024;7.540;2023-02-15T11:02:59;16.30;73.90
15455;DHT22;21057;51.024;7.540;2023-02-15T11:05:41;15.80;74.40
15455;DHT22;21057;51.024;7.540;2023-02-15T11:08:11;16.00;74.50
15455;DHT22;21057;51.024;7.540;2023-02-15T11:10:43;15.60;76.50
15455;DHT22;21057;51.024;7.540;2023-02-15T11:13:13;15.50;78.20
15455;DHT22;21057;51.024;7.540;2023-02-15T11:15:52;15.60;77.50
15455;DHT22;21057;51.024;7.540;2023-02-15T11:18:27;15.60;77.10
15455;DHT22;21057;51.024;7.540;2023-02-15T11:21:03;15.20;78.10
15455;DHT22;21057;51.024;7.540;2023-02-15T11:23:32;15.00;77.90
15455;DHT22;21057;51.024;7.540;2023-02-15T11:26:04;14.60;78.90
15455;DHT22;21057;51.024;7.540;2023-02-15T11:28:48;14.30;82.40
15455;DHT22;21057;51.024;7.540;2023-02-15T11:31:26;13.80;87.90
15455;DHT22;21057;51.024;7.540;2023-02-15T11:34:12;13.60;85.40
15455;DHT22;21057;51.024;7.540;2023-02-15T11:36:41;13.80;87.50
15455;DHT22;21057;51.024;7.540;2023-02-15T11:39:14;13.90;86.00
15455;DHT22;21057;51.024;7.540;2023-02-15T11:41:54;14.00;84.40
15455;DHT22;21057;51.024;7.540;2023-02-15T11:44:29;14.10;84.00
15455;DHT22;21057;51.024;7.540;2023-02-15T11:46:59;13.40;87.30
15455;DHT22;21057;51.024;7.540;2023-02-15T11:49:35;12.70;90.30
15455;DHT22;21057;51.024;7.540;2023-02-15T11:52:05;12.20;91.60
15455;DHT22;21057;51.024;7.540;2023-02-15T11:54:42;11.50;93.60
15455;DHT22;21057;51.024;7.540;2023-02-15T11:57:16;11.20;96.20
15455;DHT22;21057;51.024;7.540;2023-02-15T12:00:06;11.30;96.90
15455;DHT22;21057;51.024;7.540;2023-02-15T12:02:45;11.10;96.90
15455;DHT22;21057;51.024;7.540;2023-02-15T12:05:23;11.00;98.30
15455;DHT22;21057;51.024;7.540;2023-02-15T12:07:54;10.90;98.80
15455;DHT22;21057;51.024;7.540;2023-02-15T12:10:26;10.80;99.80
15455;DHT22;21057;51.024;7.540;2023-02-15T12:13:11;11.00;99.80
15455;DHT22;21057;51.024;7.540;2023-02-15T12:15:45;11.10;98.50
15455;DHT22;21057;51.024;7.540;2023-02-15T12:18:35;11.00;98.50
15455;DHT22;21057;51.024;7.540;2023-02-15T12:21:05;11.10;99.60
15455;DHT22;21057;51.024;7.540;2023-02-15T12:23:34;10.90;99.90
15455;DHT22;21057;51.024;7.540;2023-02-15T12:26:02;11.00;99.80
15455;DHT22;21057;51.024;7.540;2023-02-15T12:28:33;11.00;99.90
15455;DHT22;21057;51.024;7.540;2023-02-15T12:31:02;11.10;99.80
15455;DHT22;21057;51.024;7.540;2023-02-15T12:33:32;11.20;99.90
15455;DHT22;21057;51.024;7.540;2023-02-15T12:36:03;10.90;99.90
15455;DHT22;21057;51.024;7.540;2023-02-15T12:38:36;11.00;99.90
15455;DHT22;21057;51.024;7.540;2023-02-15T12:41:04;11.10;99.90
15455;DHT22;21057;51.024;7.540;2023-02-15T12:43:35;11.10;99.90
15455;DHT22;21057;51.024;7.540;2023-02-15T12:46:20;11.10;99.90
15455;DHT22;21057;51.024;7.540;2023-02-15T12:49:05;11.00;99.90
15455;DHT22;21057;51.024;7.540;2023-02-15T12:51:42;11.30;99.90
15455;DHT22;21057;51.024;7.540;2023-02-15T12:54:27;11.30;99.90
15455;DHT22;21057;51.024;7.540;2023-02-15T12:56:55;11.30;99.90
15455;DHT22;21057;51.024;7.540;2023-02-15T12:59:24;11.20;99.90
15455;DHT22;21057;51.024;7.540;2023-02-15T13:01:52;11.10;99.90
15455;DHT22;21057;51.024;7.540;2023-02-15T13:04:23;11.10;99.90
15455;DHT22;21057;51.024;7.540;2023-02-15T13:06:52;11.30;99.90
15455;DHT22;21057;51.024;7.540;2023-02-15T13:09:23;11.30;99.90
15455;DHT22;21057;51.024;7.540;2023-02-15T13:11:53;11.30;99.90
15455;DHT22;21057;51.024;7.540;2023-02-15T13:14:22;11.30;99.90
15455;DHT22;21057;51.024;7.540;2023-02-15T13:17:02;11.40;99.90
15455;DHT22;21057;51.024;7.540;2023-02-15T13:19:34;11.50;99.90
15455;DHT22;21057;51.024;7.540;2023-02-15T13:22:06;11.70;99.90
15455;DHT22;21057;51.024;7.540;2023-02-15T13:24:48;11.70;99.90
15455;DHT22;21057;51.024;7.540;2023-02-15T13:27:18;11.80;99.90
15455;DHT22;21057;51.024;7.540;2023-02-15T13:29:50;12.00;99.80
15455;DHT22;21057;51.024;7.540;2023-02-15T13:32:29;11.90;99.90
15455;DHT22;21057;51.024;7.540;2023-02-15T13:35:14;11.90;99.90
15455;DHT22;21057;51.024;7.540;2023-02-15T13:38:06;11.90;99.90
15455;DHT22;21057;51.024;7.540;2023-02-15T13:40:40;12.00;99.10
15455;DHT22;21057;51.024;7.540;2023-02-15T13:43:20;12.00;99.90
15455;DHT22;21057;51.024;7.540;2023-02-15T13:46:02;12.10;99.90
15455;DHT22;21057;51.024;7.540;2023-02-15T13:48:39;12.30;99.70
15455;DHT22;21057;51.024;7.540;2023-02-15T13:51:13;12.40;99.50
15455;DHT22;21057;51.024;7.540;2023-02-15T13:53:59;12.50;99.00
15455;DHT22;21057;51.024;7.540;2023-02-15T13:56:44;12.70;99.00
15455;DHT22;21057;51.024;7.540;2023-02-15T13:59:38;13.30;97.90
15455;DHT22;21057;51.024;7.540;2023-02-15T14:05:21;14.80;94.80
15455;DHT22;21057;51.024;7.540;2023-02-15T14:08:11;15.40;93.50
15455;DHT22;21057;51.024;7.540;2023-02-15T14:10:53;16.10;91.20
15455;DHT22;21057;51.024;7.540;2023-02-15T14:13:51;16.40;90.20
15455;DHT22;21057;51.024;7.540;2023-02-15T14:16:28;16.90;84.40
15455;DHT22;21057;51.024;7.540;2023-02-15T14:19:04;16.90;82.50
15455;DHT22;21057;51.024;7.540;2023-02-15T14:21:40;16.80;82.00
15455;DHT22;21057;51.024;7.540;2023-02-15T14:24:29;16.80;84.30
15455;DHT22;21057;51.024;7.540;2023-02-15T14:27:06;16.70;82.80
15455;DHT22;21057;51.024;7.540;2023-02-15T14:29:48;16.50;83.30
15455;DHT22;21057;51.024;7.540;2023-02-15T14:32:30;16.70;83.20
15455;DHT22;21057;51.024;7.540;2023-02-15T14:35:00;16.70;82.30
15455;DHT22;21057;51.024;7.540;2023-02-15T14:37:38;16.90;84.00
15455;DHT22;21057;51.024;7.540;2023-02-15T14:40:11;17.20;82.40
15455;DHT22;21057;51.024;7.540;2023-02-15T14:43:06;16.90;81.10
15455;DHT22;21057;51.024;7.540;2023-02-15T14:45:44;16.70;84.20
15455;DHT22;21057;51.024;7.540;2023-02-15T14:48:17;16.70;81.80
15455;DHT22;21057;51.024;7.540;2023-02-15T14:50:48;16.40;82.30
15455;DHT22;21057;51.024;7.540;2023-02-15T14:53:36;15.70;85.40
15455;DHT22;21057;51.024;7.540;2023-02-15T14:56:19;15.10;88.80
15455;DHT22;21057;51.024;7.540;2023-02-15T14:59:16;14.70;90.40
15455;DHT22;21057;51.024;7.540;2023-02-15T15:01:56;14.10;91.80
15455;DHT22;21057;51.024;7.540;2023-02-15T15:04:29;13.70;92.50
15455;DHT22;21057;51.024;7.540;2023-02-15T15:07:03;13.30;94.00
15455;DHT22;21057;51.024;7.540;2023-02-15T15:09:37;13.10;95.50
15455;DHT22;21057;51.024;7.540;2023-02-15T15:12:36;12.90;97.40
15455;DHT22;21057;51.024;7.540;2023-02-15T15:15:05;12.70;97.60
15455;DHT22;21057;51.024;7.540;2023-02-15T15:17:55;12.60;97.10
15455;DHT22;21057;51.024;7.540;2023-02-15T15:20:44;12.40;98.00
15455;DHT22;21057;51.024;7.540;2023-02-15T15:23:41;12.10;99.90
15455;DHT22;21057;51.024;7.540;2023-02-15T15:26:28;12.20;99.40
15455;DHT22;21057;51.024;7.540;2023-02-15T15:29:03;12.00;99.90
15455;DHT22;21057;51.024;7.540;2023-02-15T15:31:48;11.80;99.40
15455;DHT22;21057;51.024;7.540;2023-02-15T15:34:49;11.60;99.90
15455;DHT22;21057;51.024;7.540;2023-02-15T15:37:59;11.70;99.90
15455;DHT22;21057;51.024;7.540;2023-02-15T15:40:42;11.50;99.90
15455;DHT22;21057;51.024;7.540;2023-02-15T15:46:41;11.30;99.90
15455;DHT22;21057;51.024;7.540;2023-02-15T15:49:16;11.30;99.90
15455;DHT22;21057;51.024;7.540;2023-02-15T15:51:45;11.10;99.90
15455;DHT22;21057;51.024;7.540;2023-02-15T15:54:15;11.00;99.90
15455;DHT22;21057;51.024;7.540;2023-02-15T15:56:46;10.90;99.90
15455;DHT22;21057;51.024;7.540;2023-02-15T15:59:26;10.70;99.90
15455;DHT22;21057;51.024;7.540;2023-02-15T16:01:54;10.90;99.90
15455;DHT22;21057;51.024;7.540;2023-02-15T16:04:26;10.70;99.90
15455;DHT22;21057;51.024;7.540;2023-02-15T16:06:53;10.70;99.90
15455;DHT22;21057;51.024;7.540;2023-02-15T16:09:24;10.70;99.90
15455;DHT22;21057;51.024;7.540;2023-02-15T16:11:52;10.60;99.90
15455;DHT22;21057;51.024;7.540;2023-02-15T16:14:28;10.40;99.90
15455;DHT22;21057;51.024;7.540;2023-02-15T16:16:58;10.20;99.90
15455;DHT22;21057;51.024;7.540;2023-02-15T16:19:28;10.30;99.90
15455;DHT22;21057;51.024;7.540;2023-02-15T16:21:58;10.20;99.90
15455;DHT22;21057;51.024;7.540;2023-02-15T16:24:37;10.10;99.90
15455;DHT22;21057;51.024;7.540;2023-02-15T16:27:18;10.00;99.90
15455;DHT22;21057;51.024;7.540;2023-02-15T16:29:48;10.00;99.90
15455;DHT22;21057;51.024;7.540;2023-02-15T16:32:17;9.90;99.90
15455;DHT22;21057;51.024;7.540;2023-02-15T16:34:55;9.80;99.90